createdAt,value
2018-02-19T00:00:57.686Z,23.23
2018-02-19T00:03:25.198Z,22.27
2018-02-19T00:05:52.705Z,20.60
2018-02-19T00:08:20.953Z,21.10
2018-02-19T00:10:48.562Z,23.37
2018-02-19T00:13:16.144Z,20.90
2018-02-19T00:15:43.633Z,21.33
2018-02-19T00:18:11.128Z,18.97
2018-02-19T00:20:38.661Z,18.17
2018-02-19T00:23:06.935Z,17.40
2018-02-19T00:25:34.461Z,17.50
2018-02-19T00:28:02.724Z,18.43
2018-02-19T00:30:30.249Z,18.47
2018-02-19T00:32:58.515Z,17.70
2018-02-19T00:35:26.828Z,17.03
2018-02-19T00:37:54.345Z,16.97
2018-02-19T00:40:22.758Z,16.97
2018-02-19T00:42:51.003Z,18.70
2018-02-19T00:45:18.485Z,17.80
2018-02-19T00:47:46.004Z,16.90
2018-02-19T00:50:13.503Z,17.10
2018-02-19T00:52:41.742Z,15.80
2018-02-19T00:55:09.226Z,16.60
2018-02-19T00:57:36.709Z,17.27
2018-02-19T01:00:04.259Z,17.27
2018-02-19T01:02:31.744Z,18.00
2018-02-19T01:04:59.250Z,19.03
2018-02-19T01:07:27.521Z,22.17
2018-02-19T01:09:55.807Z,20.53
2018-02-19T01:12:23.285Z,20.23
2018-02-19T01:14:50.783Z,20.23
2018-02-19T01:17:18.294Z,23.33
2018-02-19T01:19:45.773Z,27.23
2018-02-19T01:22:13.394Z,26.13
2018-02-19T01:24:41.653Z,26.70
2018-02-19T01:27:09.178Z,25.13
2018-02-19T01:29:37.418Z,25.10
2018-02-19T01:32:04.991Z,26.00
2018-02-19T01:34:32.508Z,23.70
2018-02-19T01:37:00.073Z,23.10
2018-02-19T01:39:27.603Z,25.40
2018-02-19T01:41:55.179Z,24.37
2018-02-19T01:44:22.806Z,19.97
2018-02-19T01:46:51.085Z,19.87
2018-02-19T01:49:18.656Z,18.27
2018-02-19T01:51:46.153Z,19.23
2018-02-19T01:54:14.492Z,22.07
2018-02-19T01:56:42.002Z,19.50
2018-02-19T01:59:09.517Z,16.63
2018-02-19T02:01:37.344Z,16.77
2018-02-19T02:04:05.609Z,16.93
2018-02-19T02:06:33.101Z,19.13
2018-02-19T02:09:00.604Z,19.83
2018-02-19T02:11:28.269Z,22.57
2018-02-19T02:13:55.812Z,21.07
2018-02-19T02:16:23.474Z,19.67
2018-02-19T02:18:51.115Z,19.00
2018-02-19T02:21:18.655Z,18.60
2018-02-19T02:23:46.180Z,18.90
2018-02-19T02:26:13.773Z,19.83
2018-02-19T02:28:41.278Z,19.13
2018-02-19T02:31:08.759Z,21.83
2018-02-19T02:33:36.332Z,20.70
2018-02-19T02:36:03.827Z,20.97
2018-02-19T02:38:31.437Z,20.03
2018-02-19T02:40:58.945Z,20.20
2018-02-19T02:43:26.489Z,18.40
2018-02-19T02:45:54.003Z,19.23
2018-02-19T02:48:21.626Z,19.07
2018-02-19T02:50:49.106Z,17.57
2018-02-19T02:53:16.661Z,19.33
2018-02-19T02:55:44.327Z,17.97
2018-02-19T02:58:11.914Z,17.70
2018-02-19T03:00:40.288Z,18.83
2018-02-19T03:03:07.792Z,18.97
2018-02-19T03:05:35.276Z,19.30
2018-02-19T03:08:02.858Z,19.97
2018-02-19T03:10:30.339Z,18.43
2018-02-19T03:12:57.890Z,18.00
2018-02-19T03:15:26.139Z,20.33
2018-02-19T03:17:53.652Z,20.30
2018-02-19T03:20:21.200Z,20.90
2018-02-19T03:22:48.683Z,22.57
2018-02-19T03:25:16.213Z,19.77
2018-02-19T03:27:44.525Z,19.77
2018-02-19T03:30:12.057Z,18.77
2018-02-19T03:32:39.627Z,20.63
2018-02-19T03:35:07.116Z,21.23
2018-02-19T03:37:35.894Z,19.77
2018-02-19T03:40:03.411Z,21.83
2018-02-19T03:42:31.774Z,21.13
2018-02-19T03:44:59.243Z,20.63
2018-02-19T03:47:26.734Z,20.17
2018-02-19T03:49:54.307Z,20.73
2018-02-19T03:52:21.825Z,20.63
2018-02-19T03:54:50.332Z,20.50
2018-02-19T03:57:17.802Z,20.10
2018-02-19T03:59:45.278Z,19.80
2018-02-19T04:02:12.822Z,20.00
2018-02-19T04:04:41.068Z,18.83
2018-02-19T04:07:08.583Z,17.13
2018-02-19T04:09:36.214Z,17.13
2018-02-19T04:12:03.724Z,18.83
2018-02-19T04:14:31.218Z,18.87
2018-02-19T04:16:58.841Z,18.07
2018-02-19T04:19:27.197Z,18.57
2018-02-19T04:21:54.685Z,18.77
2018-02-19T04:24:22.367Z,18.30
2018-02-19T04:26:49.942Z,18.97
2018-02-19T04:29:17.511Z,17.33
2018-02-19T04:31:45.048Z,17.33
2018-02-19T04:34:13.278Z,17.93
2018-02-19T04:36:40.837Z,16.80
2018-02-19T04:39:09.145Z,17.97
2018-02-19T04:41:36.696Z,16.07
2018-02-19T04:44:04.268Z,16.33
2018-02-19T04:46:35.413Z,18.00
2018-02-19T04:49:02.921Z,17.00
2018-02-19T04:51:30.509Z,15.07
2018-02-19T04:53:58.056Z,15.97
2018-02-19T04:56:26.338Z,15.80
2018-02-19T04:58:53.831Z,17.30
2018-02-19T05:01:21.305Z,16.17
2018-02-19T05:03:48.842Z,15.77
2018-02-19T05:06:16.909Z,15.83
2018-02-19T05:08:45.945Z,16.70
2018-02-19T05:11:13.415Z,16.63
2018-02-19T05:13:40.902Z,17.30
2018-02-19T05:16:08.443Z,17.53
2018-02-19T05:18:35.948Z,16.10
2018-02-19T05:21:03.483Z,17.03
2018-02-19T05:23:31.225Z,16.13
2018-02-19T05:25:58.723Z,17.33
2018-02-19T05:28:26.206Z,16.10
2018-02-19T05:30:53.687Z,16.67
2018-02-19T05:33:21.176Z,16.63
2018-02-19T05:35:48.655Z,21.83
2018-02-19T05:38:16.184Z,17.70
2018-02-19T05:40:44.417Z,16.20
2018-02-19T05:43:12.662Z,17.00
2018-02-19T05:45:40.134Z,17.20
2018-02-19T05:48:07.661Z,17.07
2018-02-19T05:50:35.140Z,17.40
2018-02-19T05:53:02.970Z,16.37
2018-02-19T05:55:31.213Z,17.70
2018-02-19T05:57:58.698Z,17.07
2018-02-19T06:00:26.191Z,16.70
2018-02-19T06:02:53.691Z,17.80
2018-02-19T06:05:21.235Z,16.77
2018-02-19T06:07:48.744Z,17.83
2018-02-19T06:10:16.256Z,19.47
2018-02-19T06:12:43.794Z,17.83
2018-02-19T06:15:12.171Z,18.23
2018-02-19T06:17:40.461Z,17.03
2018-02-19T06:20:08.032Z,18.07
2018-02-19T06:22:35.508Z,16.87
2018-02-19T06:25:03.008Z,18.37
2018-02-19T06:27:30.595Z,17.13
2018-02-19T06:29:58.123Z,17.30
2018-02-19T06:32:25.673Z,16.97
2018-02-19T06:34:53.176Z,17.90
2018-02-19T06:37:20.691Z,17.60
2018-02-19T06:39:48.182Z,16.90
2018-02-19T06:42:16.466Z,17.17
2018-02-19T06:44:44.334Z,18.23
2018-02-19T06:47:12.585Z,18.80
2018-02-19T06:49:40.233Z,20.57
2018-02-19T06:52:07.753Z,18.77
2018-02-19T06:54:35.367Z,19.37
2018-02-19T06:57:03.095Z,18.77
2018-02-19T06:59:30.674Z,17.30
2018-02-19T07:01:58.938Z,17.63
2018-02-19T07:04:26.419Z,17.07
2018-02-19T07:06:53.979Z,17.50
2018-02-19T07:09:21.584Z,18.23
2018-02-19T07:11:49.142Z,17.57
2018-02-19T07:14:17.416Z,16.53
2018-02-19T07:16:45.675Z,17.00
2018-02-19T07:19:13.197Z,18.47
2018-02-19T07:21:40.728Z,17.30
2018-02-19T07:24:08.242Z,16.77
2018-02-19T07:26:35.886Z,18.37
2018-02-19T07:29:04.127Z,18.93
2018-02-19T07:31:31.664Z,17.37
2018-02-19T07:33:59.153Z,18.23
2018-02-19T07:36:26.639Z,16.63
2018-02-19T07:38:54.145Z,17.20
2018-02-19T07:41:21.633Z,16.73
2018-02-19T07:43:49.953Z,16.63
2018-02-19T07:46:18.256Z,15.80
2018-02-19T07:48:46.522Z,17.73
2018-02-19T07:51:14.362Z,17.13
2018-02-19T07:53:42.650Z,15.00
2018-02-19T07:56:10.177Z,14.83
2018-02-19T07:58:37.733Z,14.83
2018-02-19T08:01:06.095Z,17.87
2018-02-19T08:03:33.603Z,17.77
2018-02-19T08:06:01.145Z,17.47
2018-02-19T08:08:28.802Z,16.73
2018-02-19T08:10:57.185Z,15.77
2018-02-19T08:13:24.690Z,17.30
2018-02-19T08:15:53.224Z,15.07
2018-02-19T08:18:21.662Z,13.83
2018-02-19T08:20:49.272Z,14.03
2018-02-19T08:23:16.745Z,19.10
2018-02-19T08:25:44.248Z,15.07
2018-02-19T08:28:12.571Z,16.77
2018-02-19T08:30:40.823Z,17.23
2018-02-19T08:33:08.335Z,15.20
2018-02-19T08:35:35.839Z,13.93
2018-02-19T08:38:03.314Z,14.80
2018-02-19T08:40:30.787Z,13.80
2018-02-19T08:42:58.294Z,11.70
2018-02-19T08:45:25.876Z,12.40
2018-02-19T08:47:53.381Z,11.90
2018-02-19T08:50:20.862Z,13.37
2018-02-19T08:52:48.457Z,11.77
2018-02-19T08:55:15.950Z,12.30
2018-02-19T08:57:43.602Z,11.77
2018-02-19T09:00:11.117Z,13.57
2018-02-19T09:02:38.597Z,12.57
2018-02-19T09:05:06.139Z,11.80
2018-02-19T09:07:33.626Z,13.43
2018-02-19T09:10:01.870Z,12.47
2018-02-19T09:12:29.380Z,13.10
2018-02-19T09:14:57.648Z,12.37
2018-02-19T09:17:25.286Z,12.17
2018-02-19T09:19:53.517Z,11.90
2018-02-19T09:22:21.022Z,11.87
2018-02-19T09:24:48.536Z,12.33
2018-02-19T09:27:16.159Z,12.20
2018-02-19T09:29:44.589Z,12.23
2018-02-19T09:32:12.899Z,12.53
2018-02-19T09:34:40.418Z,13.03
2018-02-19T09:37:07.914Z,12.77
2018-02-19T09:39:35.431Z,12.23
2018-02-19T09:42:02.928Z,13.37
2018-02-19T09:44:31.180Z,12.60
2018-02-19T09:46:59.238Z,12.17
2018-02-19T09:49:27.603Z,12.80
2018-02-19T09:51:55.202Z,13.17
2018-02-19T09:54:22.706Z,15.30
2018-02-19T09:56:50.170Z,12.30
2018-02-19T09:59:17.665Z,11.83
2018-02-19T10:01:45.151Z,11.10
2018-02-19T10:04:12.645Z,11.17
2018-02-19T10:06:40.121Z,12.53
2018-02-19T10:09:07.624Z,11.40
2018-02-19T10:11:35.102Z,10.00
2018-02-19T10:14:03.506Z,11.80
2018-02-19T10:16:30.982Z,12.07
2018-02-19T10:18:58.449Z,12.00
2018-02-19T10:21:25.970Z,12.17
2018-02-19T10:23:53.517Z,13.93
2018-02-19T10:26:21.022Z,13.03
2018-02-19T10:28:48.514Z,12.40
2018-02-19T10:31:16.024Z,12.30
2018-02-19T10:33:43.584Z,11.17
2018-02-19T10:36:11.245Z,11.53
2018-02-19T10:38:38.735Z,11.73
2018-02-19T10:41:07.004Z,11.20
2018-02-19T10:43:34.505Z,11.33
2018-02-19T10:46:02.074Z,11.80
2018-02-19T10:48:29.547Z,10.63
2018-02-19T10:50:57.859Z,12.50
2018-02-19T10:53:25.341Z,11.97
2018-02-19T10:55:52.906Z,10.43
2018-02-19T10:58:20.380Z,11.80
2018-02-19T11:00:47.846Z,11.00
2018-02-19T11:03:16.078Z,11.77
2018-02-19T11:05:43.547Z,11.97
2018-02-19T11:08:11.163Z,10.57
2018-02-19T11:10:38.630Z,11.43
2018-02-19T11:13:06.152Z,10.87
2018-02-19T11:15:34.406Z,11.60
2018-02-19T11:18:01.878Z,11.43
2018-02-19T11:20:29.356Z,11.33
2018-02-19T11:22:56.882Z,11.43
2018-02-19T11:25:24.577Z,12.97
2018-02-19T11:27:52.071Z,13.00
2018-02-19T11:30:19.530Z,13.13
2018-02-19T11:32:47.041Z,12.87
2018-02-19T11:35:14.503Z,12.80
2018-02-19T11:37:42.019Z,13.80
2018-02-19T11:40:09.672Z,11.13
2018-02-19T11:42:37.194Z,11.43
2018-02-19T11:45:04.690Z,10.43
2018-02-19T11:47:32.217Z,9.97
2018-02-19T11:50:00.604Z,9.77
2018-02-19T11:52:28.898Z,10.27
2018-02-19T11:54:56.378Z,10.67
2018-02-19T11:57:23.907Z,10.67
2018-02-19T11:59:51.441Z,10.30
2018-02-19T12:02:18.954Z,10.30
2018-02-19T12:04:47.183Z,8.43
2018-02-19T12:07:14.649Z,9.87
2018-02-19T12:09:42.200Z,10.40
2018-02-19T12:12:09.731Z,11.73
2018-02-19T12:14:37.989Z,11.10
2018-02-19T12:17:05.457Z,11.40
2018-02-19T12:19:32.936Z,10.17
2018-02-19T12:22:00.409Z,11.37
2018-02-19T12:24:28.650Z,12.00
2018-02-19T12:26:56.251Z,11.13
2018-02-19T12:29:23.750Z,11.50
2018-02-19T12:31:51.313Z,12.10
2018-02-19T12:34:18.912Z,12.00
2018-02-19T12:36:46.432Z,11.77
2018-02-19T12:39:13.898Z,11.90
2018-02-19T12:41:41.381Z,11.83
2018-02-19T12:44:08.862Z,11.77
2018-02-19T12:46:36.329Z,12.03
2018-02-19T12:49:03.853Z,11.17
2018-02-19T12:51:31.475Z,11.80
2018-02-19T12:53:59.727Z,12.20
2018-02-19T12:56:27.234Z,11.97
2018-02-19T12:58:55.528Z,11.10
2018-02-19T13:01:23.149Z,13.03
2018-02-19T13:03:50.737Z,12.93
2018-02-19T13:06:18.983Z,11.63
2018-02-19T13:08:46.544Z,11.90
2018-02-19T13:11:14.009Z,12.10
2018-02-19T13:13:42.373Z,12.07
2018-02-19T13:16:09.882Z,12.90
2018-02-19T13:18:37.387Z,12.23
2018-02-19T13:21:04.904Z,13.50
2018-02-19T13:23:32.387Z,12.50
2018-02-19T13:25:59.875Z,13.30
2018-02-19T13:28:27.628Z,12.10
2018-02-19T13:30:55.894Z,13.00
2018-02-19T13:33:23.404Z,13.70
2018-02-19T13:35:50.893Z,12.60
2018-02-19T13:38:18.616Z,12.93
2018-02-19T13:40:46.097Z,13.63
2018-02-19T13:43:13.576Z,13.40
2018-02-19T13:45:41.882Z,12.83
2018-02-19T13:48:10.119Z,13.37
2018-02-19T13:50:37.598Z,13.43
2018-02-19T13:53:05.076Z,12.67
2018-02-19T13:55:32.550Z,15.00
2018-02-19T13:58:00.797Z,13.23
2018-02-19T14:00:28.268Z,13.13
2018-02-19T14:02:55.732Z,13.80
2018-02-19T14:05:24.017Z,15.13
2018-02-19T14:07:51.498Z,15.50
2018-02-19T14:10:19.833Z,13.63
2018-02-19T14:12:47.385Z,13.03
2018-02-19T14:15:14.953Z,13.70
2018-02-19T14:17:42.471Z,12.67
2018-02-19T14:20:11.451Z,12.80
2018-02-19T14:22:39.051Z,13.53
2018-02-19T14:25:06.578Z,14.03
2018-02-19T14:27:34.853Z,13.47
2018-02-19T14:30:02.329Z,13.17
2018-02-19T14:32:29.790Z,13.60
2018-02-19T14:34:58.033Z,13.87
2018-02-19T14:37:25.530Z,14.10
2018-02-19T14:39:53.016Z,14.53
2018-02-19T14:42:20.483Z,12.97
2018-02-19T14:44:47.954Z,13.77
2018-02-19T14:47:16.268Z,14.23
2018-02-19T14:49:43.786Z,14.63
2018-02-19T14:52:11.302Z,14.50
2018-02-19T14:54:39.530Z,13.70
2018-02-19T14:57:07.026Z,13.13
2018-02-19T14:59:34.503Z,13.30
2018-02-19T15:02:02.011Z,15.23
2018-02-19T15:04:29.551Z,15.00
2018-02-19T15:06:58.040Z,13.97
2018-02-19T15:09:26.474Z,12.83
2018-02-19T15:11:54.067Z,15.30
2018-02-19T15:14:21.569Z,14.50
2018-02-19T15:16:49.134Z,14.77
2018-02-19T15:19:16.638Z,14.67
2018-02-19T15:21:44.154Z,14.57
2018-02-19T15:24:12.386Z,14.27
2018-02-19T15:26:40.195Z,14.67
2018-02-19T15:29:07.726Z,14.20
2018-02-19T15:31:36.090Z,13.53
2018-02-19T15:34:03.574Z,14.07
2018-02-19T15:36:31.087Z,13.93
2018-02-19T15:38:59.856Z,13.50
2018-02-19T15:41:28.259Z,13.83
2018-02-19T15:43:56.599Z,23.07
2018-02-19T15:46:25.897Z,24.83
2018-02-19T15:48:53.411Z,22.07
2018-02-19T15:51:20.917Z,22.27
2018-02-19T15:53:48.512Z,20.67
2018-02-19T15:56:16.014Z,24.97
2018-02-19T15:58:43.504Z,21.10
2018-02-19T16:01:11.747Z,38.33
2018-02-19T16:03:39.234Z,35.17
2018-02-19T16:06:06.733Z,27.50
2018-02-19T16:08:34.211Z,23.03
2018-02-19T16:11:01.778Z,21.67
2018-02-19T16:13:30.022Z,20.73
2018-02-19T16:15:57.558Z,21.97
2018-02-19T16:18:25.804Z,20.10
2018-02-19T16:20:53.673Z,18.00
2018-02-19T16:23:21.259Z,16.77
2018-02-19T16:25:48.800Z,18.57
2018-02-19T16:28:16.952Z,17.77
2018-02-19T16:30:44.493Z,22.13
2018-02-19T16:33:13.322Z,23.13
2018-02-19T16:35:41.605Z,20.43
2018-02-19T16:38:09.199Z,19.50
2018-02-19T16:40:36.689Z,18.43
2018-02-19T16:43:04.433Z,16.57
2018-02-19T16:45:32.856Z,16.10
2018-02-19T16:48:01.110Z,14.60
2018-02-19T16:50:28.615Z,15.50
2018-02-19T16:52:56.877Z,14.73
2018-02-19T16:55:24.352Z,15.67
2018-02-19T17:00:24.062Z,15.37
2018-02-19T17:02:51.955Z,14.60
2018-02-19T17:05:19.451Z,14.70
2018-02-19T17:07:46.928Z,14.70
2018-02-19T17:10:14.403Z,17.23
2018-02-19T17:12:41.974Z,17.23
2018-02-19T17:15:09.447Z,16.63
2018-02-19T17:17:37.694Z,17.00
2018-02-19T17:20:05.350Z,16.57
2018-02-19T17:22:34.031Z,16.50
2018-02-19T17:25:01.879Z,15.63
2018-02-19T17:27:30.212Z,17.17
2018-02-19T17:29:57.693Z,20.53
2018-02-19T17:32:25.997Z,20.80
2018-02-19T17:34:54.062Z,20.83
2018-02-19T17:37:21.548Z,19.77
2018-02-19T17:39:50.226Z,18.67
2018-02-19T17:42:18.470Z,19.07
2018-02-19T17:44:45.997Z,20.50
2018-02-19T17:47:13.490Z,18.53
2018-02-19T17:49:40.985Z,17.77
2018-02-19T17:52:09.305Z,16.23
2018-02-19T17:54:37.113Z,17.77
2018-02-19T17:57:04.635Z,18.73
2018-02-19T17:59:32.135Z,18.50
2018-02-19T18:01:59.700Z,18.70
2018-02-19T18:04:27.232Z,21.93
2018-02-19T18:06:54.789Z,19.93
2018-02-19T18:09:22.357Z,20.33
2018-02-19T18:11:50.421Z,19.27
2018-02-19T18:14:17.912Z,18.50
2018-02-19T18:16:45.397Z,19.37
2018-02-19T18:19:13.626Z,21.23
2018-02-19T18:21:41.284Z,19.60
2018-02-19T18:24:09.885Z,18.33
2018-02-19T18:26:37.426Z,16.10
2018-02-19T18:29:04.939Z,17.53
2018-02-19T18:31:33.447Z,19.27
2018-02-19T18:34:01.706Z,18.97
2018-02-19T18:36:29.207Z,19.60
2018-02-19T18:38:56.845Z,19.60
2018-02-19T18:41:24.541Z,21.10
2018-02-19T18:43:52.225Z,19.70
2018-02-19T18:46:20.498Z,19.70
2018-02-19T18:48:47.996Z,17.77
2018-02-19T18:51:15.519Z,22.10
2018-02-19T18:53:43.165Z,23.47
2018-02-19T18:56:10.928Z,24.17
2018-02-19T18:58:39.229Z,23.13
2018-02-19T19:01:07.549Z,23.27
2018-02-19T19:03:35.035Z,23.63
2018-02-19T19:06:02.569Z,22.20
2018-02-19T19:08:41.998Z,24.57
2018-02-19T19:11:09.859Z,24.37
2018-02-19T19:13:38.107Z,23.10
2018-02-19T19:16:05.616Z,24.37
2018-02-19T19:18:33.109Z,23.50
2018-02-19T19:21:01.384Z,23.20
2018-02-19T19:23:29.033Z,23.73
2018-02-19T19:25:58.043Z,23.07
2018-02-19T19:28:25.907Z,21.97
2018-02-19T19:30:53.409Z,23.10
2018-02-19T19:33:20.917Z,21.37
2018-02-19T19:35:48.431Z,23.10
2018-02-19T19:38:16.007Z,22.23
2018-02-19T19:40:44.276Z,20.27
2018-02-19T19:43:11.774Z,21.27
2018-02-19T19:45:39.286Z,20.00
2018-02-19T19:48:07.555Z,20.80
2018-02-19T19:50:35.125Z,22.10
2018-02-19T19:53:02.627Z,21.57
2018-02-19T19:55:30.122Z,21.00
2018-02-19T19:57:58.537Z,20.47
2018-02-19T20:00:26.054Z,21.50
2018-02-19T20:02:54.291Z,19.17
2018-02-19T20:05:21.773Z,20.40
2018-02-19T20:07:49.237Z,19.17
2018-02-19T20:10:16.827Z,18.07
2018-02-19T20:12:44.333Z,18.93
2018-02-19T20:15:16.262Z,18.77
2018-02-19T20:17:43.844Z,19.10
2018-02-19T20:20:11.323Z,18.87
2018-02-19T20:22:38.793Z,21.87
2018-02-19T20:25:06.292Z,18.67
2018-02-19T20:27:33.781Z,20.23
2018-02-19T20:30:01.381Z,20.03
2018-02-19T20:32:28.858Z,20.07
2018-02-19T20:34:56.337Z,19.33
2018-02-19T20:37:23.896Z,24.97
2018-02-19T20:39:51.422Z,21.27
2018-02-19T20:42:18.921Z,20.87
2018-02-19T20:44:46.527Z,23.67
2018-02-19T20:47:14.766Z,25.63
2018-02-19T20:49:42.255Z,23.13
2018-02-19T20:52:10.008Z,23.63
2018-02-19T20:54:38.269Z,25.13
2018-02-19T20:57:05.740Z,22.17
2018-02-19T20:59:33.274Z,20.17
2018-02-19T21:02:00.741Z,19.57
2018-02-19T21:04:28.337Z,19.67
2018-02-19T21:06:55.847Z,20.40
2018-02-19T21:09:23.385Z,19.53
2018-02-19T21:11:50.872Z,19.63
2018-02-19T21:14:18.407Z,19.30
2018-02-19T21:16:45.943Z,21.93
2018-02-19T21:19:13.483Z,19.30
2018-02-19T21:21:41.045Z,21.40
2018-02-19T21:24:08.564Z,20.50
2018-02-19T21:26:36.815Z,18.97
2018-02-19T21:29:04.299Z,19.83
2018-02-19T21:31:32.578Z,19.43
2018-02-19T21:34:00.137Z,18.77
2018-02-19T21:36:28.422Z,19.30
2018-02-19T21:38:55.926Z,22.27
2018-02-19T21:41:24.240Z,20.67
2018-02-19T21:43:51.717Z,21.97
2018-02-19T21:46:19.297Z,21.80
2018-02-19T21:48:46.780Z,22.23
2018-02-19T21:51:14.265Z,26.03
2018-02-19T21:53:41.765Z,21.67
2018-02-19T21:56:09.334Z,22.50
2018-02-19T21:58:36.844Z,24.03
2018-02-19T22:01:05.105Z,24.67
2018-02-19T22:03:32.598Z,27.43
2018-02-19T22:06:00.122Z,26.40
2018-02-19T22:08:28.373Z,25.37
2018-02-19T22:10:55.850Z,27.60
2018-02-19T22:13:23.352Z,25.80
2018-02-19T22:15:50.838Z,25.97
2018-02-19T22:18:18.320Z,26.30
2018-02-19T22:20:45.832Z,25.90
2018-02-19T22:23:13.436Z,23.97
2018-02-19T22:25:42.306Z,26.40
2018-02-19T22:28:09.902Z,25.10
2018-02-19T22:30:37.384Z,24.90
2018-02-19T22:33:05.485Z,25.27
2018-02-19T22:35:33.008Z,27.20
2018-02-19T22:38:01.274Z,26.43
2018-02-19T22:40:28.776Z,27.40
2018-02-19T22:42:56.244Z,25.57
2018-02-19T22:45:23.773Z,28.23
2018-02-19T22:47:52.074Z,32.10
2018-02-19T22:50:20.323Z,29.90
2018-02-19T22:52:47.801Z,26.80
2018-02-19T22:55:15.660Z,28.57
2018-02-19T22:57:43.168Z,30.23
2018-02-19T23:00:10.706Z,26.70
2018-02-19T23:02:38.342Z,25.73
2018-02-19T23:05:05.887Z,27.63
2018-02-19T23:07:33.613Z,26.50
2018-02-19T23:10:01.854Z,28.83
2018-02-19T23:12:29.332Z,28.17
2018-02-19T23:14:56.832Z,25.47
2018-02-19T23:17:24.349Z,27.20
2018-02-19T23:19:52.602Z,27.13
2018-02-19T23:22:20.104Z,27.87
2018-02-19T23:24:47.633Z,27.30
2018-02-19T23:27:15.118Z,26.07
2018-02-19T23:29:42.740Z,28.90
2018-02-19T23:32:10.986Z,26.43
2018-02-19T23:34:38.481Z,27.60
2018-02-19T23:37:05.958Z,29.43
2018-02-19T23:39:33.435Z,26.10
2018-02-19T23:42:00.964Z,26.17
2018-02-19T23:44:30.253Z,30.27
2018-02-19T23:46:57.737Z,27.87
2018-02-19T23:49:25.259Z,30.03
2018-02-19T23:51:52.742Z,27.57
2018-02-19T23:54:20.218Z,29.87
2018-02-19T23:56:47.713Z,29.17
2018-02-19T23:59:15.301Z,29.63
